sensor_id;sensor_type;location;lat;lon;timestamp;pressure;altitude;pressure_sealevel;temperature;humidity
22481;BME280;11407;56.964;-2.212;2022-08-07T00:00:53;102026.06;;;25.49;36.21
22481;BME280;11407;56.964;-2.212;2022-08-07T00:03:19;102023.44;;;25.41;36.32
22481;BME280;11407;56.964;-2.212;2022-08-07T00:05:44;102026.53;;;25.53;36.60
22481;BME280;11407;56.964;-2.212;2022-08-07T00:08:10;102017.00;;;25.87;35.90
22481;BME280;11407;56.964;-2.212;2022-08-07T00:10:36;102018.69;;;25.88;35.77
22481;BME280;11407;56.964;-2.212;2022-08-07T00:13:03;102008.06;;;25.86;35.85
22481;BME280;11407;56.964;-2.212;2022-08-07T00:15:30;101999.88;;;25.94;36.18
22481;BME280;11407;56.964;-2.212;2022-08-07T00:17:56;102001.47;;;26.18;35.33
22481;BME280;11407;56.964;-2.212;2022-08-07T00:20:23;101997.94;;;26.03;35.58
22481;BME280;11407;56.964;-2.212;2022-08-07T00:22:48;102001.44;;;25.89;36.20
22481;BME280;11407;56.964;-2.212;2022-08-07T00:25:14;101992.56;;;25.80;36.46
22481;BME280;11407;56.964;-2.212;2022-08-07T00:27:39;101988.19;;;25.79;36.58
22481;BME280;11407;56.964;-2.212;2022-08-07T00:30:06;101999.84;;;25.80;36.39
22481;BME280;11407;56.964;-2.212;2022-08-07T00:32:31;101988.09;;;25.87;36.52
22481;BME280;11407;56.964;-2.212;2022-08-07T00:34:57;101975.22;;;25.75;36.37
22481;BME280;11407;56.964;-2.212;2022-08-07T00:37:22;101973.31;;;25.83;36.64
22481;BME280;11407;56.964;-2.212;2022-08-07T00:39:49;101967.34;;;25.65;36.66
22481;BME280;11407;56.964;-2.212;2022-08-07T00:42:14;101966.28;;;25.38;37.44
22481;BME280;11407;56.964;-2.212;2022-08-07T00:44:40;101962.13;;;25.27;37.51
22481;BME280;11407;56.964;-2.212;2022-08-07T00:47:06;101959.16;;;25.22;37.99
22481;BME280;11407;56.964;-2.212;2022-08-07T00:49:32;101946.03;;;25.70;36.80
22481;BME280;11407;56.964;-2.212;2022-08-07T00:51:58;101966.03;;;25.25;37.09
22481;BME280;11407;56.964;-2.212;2022-08-07T00:54:23;101965.09;;;25.10;38.02
22481;BME280;11407;56.964;-2.212;2022-08-07T00:56:49;101963.59;;;25.07;37.77
22481;BME280;11407;56.964;-2.212;2022-08-07T00:59:15;101967.88;;;25.02;38.00
22481;BME280;11407;56.964;-2.212;2022-08-07T01:01:41;101975.47;;;24.98;37.91
22481;BME280;11407;56.964;-2.212;2022-08-07T01:04:07;101974.81;;;24.96;37.58
22481;BME280;11407;56.964;-2.212;2022-08-07T01:06:33;101975.28;;;25.00;37.49
22481;BME280;11407;56.964;-2.212;2022-08-07T01:09:00;101982.59;;;24.91;38.21
22481;BME280;11407;56.964;-2.212;2022-08-07T01:11:27;101968.53;;;25.04;37.65
22481;BME280;11407;56.964;-2.212;2022-08-07T01:13:53;101966.38;;;24.99;37.80
22481;BME280;11407;56.964;-2.212;2022-08-07T01:16:18;101955.06;;;24.96;37.66
22481;BME280;11407;56.964;-2.212;2022-08-07T01:18:44;101963.28;;;25.02;37.54
22481;BME280;11407;56.964;-2.212;2022-08-07T01:21:14;101962.03;;;24.90;38.28
22481;BME280;11407;56.964;-2.212;2022-08-07T01:23:42;101965.88;;;24.96;38.41
22481;BME280;11407;56.964;-2.212;2022-08-07T01:26:10;101957.09;;;25.24;37.62
22481;BME280;11407;56.964;-2.212;2022-08-07T01:28:37;101969.00;;;25.07;38.05
22481;BME280;11407;56.964;-2.212;2022-08-07T01:31:03;101966.63;;;25.35;37.58
22481;BME280;11407;56.964;-2.212;2022-08-07T01:33:29;101960.81;;;25.82;36.34
22481;BME280;11407;56.964;-2.212;2022-08-07T01:35:56;101961.78;;;26.04;36.49
22481;BME280;11407;56.964;-2.212;2022-08-07T01:38:23;101962.50;;;25.98;36.25
22481;BME280;11407;56.964;-2.212;2022-08-07T01:40:49;101958.47;;;25.94;36.05
22481;BME280;11407;56.964;-2.212;2022-08-07T01:43:17;101954.94;;;25.93;36.67
22481;BME280;11407;56.964;-2.212;2022-08-07T01:45:42;101953.47;;;25.09;37.63
22481;BME280;11407;56.964;-2.212;2022-08-07T01:48:08;101957.75;;;25.04;38.39
22481;BME280;11407;56.964;-2.212;2022-08-07T01:50:36;101931.41;;;25.51;37.62
22481;BME280;11407;56.964;-2.212;2022-08-07T01:53:02;101936.91;;;25.57;36.89
22481;BME280;11407;56.964;-2.212;2022-08-07T01:55:36;101932.25;;;25.65;37.17
22481;BME280;11407;56.964;-2.212;2022-08-07T01:58:07;101929.72;;;25.64;37.89
22481;BME280;11407;56.964;-2.212;2022-08-07T02:00:36;101925.72;;;25.60;37.52
22481;BME280;11407;56.964;-2.212;2022-08-07T02:03:06;101923.53;;;25.78;37.34
22481;BME280;11407;56.964;-2.212;2022-08-07T02:05:54;101923.88;;;25.75;37.35
22481;BME280;11407;56.964;-2.212;2022-08-07T02:08:23;101920.72;;;25.71;37.17
22481;BME280;11407;56.964;-2.212;2022-08-07T02:10:50;101918.59;;;25.81;36.55
22481;BME280;11407;56.964;-2.212;2022-08-07T02:13:19;101908.25;;;25.85;36.63
22481;BME280;11407;56.964;-2.212;2022-08-07T02:15:46;101912.88;;;25.76;37.11
22481;BME280;11407;56.964;-2.212;2022-08-07T02:18:14;101913.19;;;25.81;36.92
22481;BME280;11407;56.964;-2.212;2022-08-07T02:20:41;101913.88;;;25.75;37.15
22481;BME280;11407;56.964;-2.212;2022-08-07T02:23:09;101919.22;;;25.69;37.17
22481;BME280;11407;56.964;-2.212;2022-08-07T02:25:37;101921.88;;;25.77;36.95
22481;BME280;11407;56.964;-2.212;2022-08-07T02:28:05;101916.56;;;25.83;37.19
22481;BME280;11407;56.964;-2.212;2022-08-07T02:30:33;101906.13;;;25.95;36.81
22481;BME280;11407;56.964;-2.212;2022-08-07T02:33:00;101898.31;;;25.85;36.94
22481;BME280;11407;56.964;-2.212;2022-08-07T02:35:26;101897.44;;;25.34;38.55
22481;BME280;11407;56.964;-2.212;2022-08-07T02:37:55;101901.63;;;25.36;37.60
22481;BME280;11407;56.964;-2.212;2022-08-07T02:40:22;101902.63;;;25.21;38.15
22481;BME280;11407;56.964;-2.212;2022-08-07T02:42:48;101908.44;;;25.10;38.72
22481;BME280;11407;56.964;-2.212;2022-08-07T02:45:16;101908.78;;;25.15;38.14
22481;BME280;11407;56.964;-2.212;2022-08-07T02:47:43;101904.66;;;25.19;38.75
22481;BME280;11407;56.964;-2.212;2022-08-07T02:50:09;101903.94;;;25.25;38.37
22481;BME280;11407;56.964;-2.212;2022-08-07T02:52:42;101898.09;;;25.72;37.37
22481;BME280;11407;56.964;-2.212;2022-08-07T02:57:46;101897.56;;;25.77;37.14
22481;BME280;11407;56.964;-2.212;2022-08-07T03:00:13;101902.91;;;25.62;37.47
22481;BME280;11407;56.964;-2.212;2022-08-07T03:02:43;101896.44;;;25.35;38.66
22481;BME280;11407;56.964;-2.212;2022-08-07T03:05:10;101894.66;;;25.42;38.28
22481;BME280;11407;56.964;-2.212;2022-08-07T03:07:37;101893.84;;;25.41;38.05
22481;BME280;11407;56.964;-2.212;2022-08-07T03:10:03;101884.78;;;25.85;37.50
22481;BME280;11407;56.964;-2.212;2022-08-07T03:12:31;101883.44;;;25.67;37.76
22481;BME280;11407;56.964;-2.212;2022-08-07T03:14:58;101889.66;;;25.53;37.84
22481;BME280;11407;56.964;-2.212;2022-08-07T03:17:25;101893.75;;;25.49;38.41
22481;BME280;11407;56.964;-2.212;2022-08-07T03:19:51;101894.06;;;25.54;37.92
22481;BME280;11407;56.964;-2.212;2022-08-07T03:22:17;101894.59;;;25.50;38.37
22481;BME280;11407;56.964;-2.212;2022-08-07T03:24:43;101897.41;;;25.56;38.63
22481;BME280;11407;56.964;-2.212;2022-08-07T03:27:09;101890.13;;;25.71;37.62
22481;BME280;11407;56.964;-2.212;2022-08-07T03:29:47;101891.81;;;25.58;38.41
22481;BME280;11407;56.964;-2.212;2022-08-07T03:32:16;101902.91;;;25.62;38.58
22481;BME280;11407;56.964;-2.212;2022-08-07T03:34:44;101911.38;;;25.59;38.69
22481;BME280;11407;56.964;-2.212;2022-08-07T03:37:10;101899.97;;;26.01;37.69
22481;BME280;11407;56.964;-2.212;2022-08-07T03:39:37;101905.53;;;25.70;38.32
22481;BME280;11407;56.964;-2.212;2022-08-07T03:42:03;101902.06;;;25.62;38.30
22481;BME280;11407;56.964;-2.212;2022-08-07T03:44:31;101899.78;;;25.88;37.97
22481;BME280;11407;56.964;-2.212;2022-08-07T03:46:57;101892.13;;;25.62;38.31
22481;BME280;11407;56.964;-2.212;2022-08-07T03:49:23;101889.88;;;25.52;38.27
22481;BME280;11407;56.964;-2.212;2022-08-07T03:51:49;101895.22;;;25.37;38.64
22481;BME280;11407;56.964;-2.212;2022-08-07T03:54:16;101899.03;;;25.28;39.28
22481;BME280;11407;56.964;-2.212;2022-08-07T03:56:42;101892.72;;;25.36;39.35
22481;BME280;11407;56.964;-2.212;2022-08-07T03:59:10;101889.91;;;25.29;39.29
22481;BME280;11407;56.964;-2.212;2022-08-07T04:01:40;101895.69;;;25.41;39.45
22481;BME280;11407;56.964;-2.212;2022-08-07T04:04:06;101890.72;;;25.30;38.88
22481;BME280;11407;56.964;-2.212;2022-08-07T04:06:32;101890.00;;;25.36;39.25
22481;BME280;11407;56.964;-2.212;2022-08-07T04:09:00;101885.19;;;25.46;38.57
22481;BME280;11407;56.964;-2.212;2022-08-07T04:11:25;101887.66;;;25.33;38.88
22481;BME280;11407;56.964;-2.212;2022-08-07T04:13:52;101896.66;;;25.48;38.86
22481;BME280;11407;56.964;-2.212;2022-08-07T04:16:19;101900.03;;;25.27;39.21
22481;BME280;11407;56.964;-2.212;2022-08-07T04:18:45;101893.63;;;25.28;39.57
22481;BME280;11407;56.964;-2.212;2022-08-07T04:21:11;101898.03;;;25.44;39.56
22481;BME280;11407;56.964;-2.212;2022-08-07T04:23:37;101886.66;;;25.34;39.01
22481;BME280;11407;56.964;-2.212;2022-08-07T04:26:05;101898.81;;;25.30;39.28
22481;BME280;11407;56.964;-2.212;2022-08-07T04:28:31;101898.47;;;25.33;39.63
22481;BME280;11407;56.964;-2.212;2022-08-07T04:30:57;101895.97;;;25.31;39.25
22481;BME280;11407;56.964;-2.212;2022-08-07T04:33:23;101903.91;;;25.47;39.11
22481;BME280;11407;56.964;-2.212;2022-08-07T04:35:49;101898.56;;;25.90;38.39
22481;BME280;11407;56.964;-2.212;2022-08-07T04:38:15;101897.06;;;26.02;38.37
22481;BME280;11407;56.964;-2.212;2022-08-07T04:40:43;101900.31;;;26.12;38.12
22481;BME280;11407;56.964;-2.212;2022-08-07T04:43:09;101906.56;;;26.27;38.09
22481;BME280;11407;56.964;-2.212;2022-08-07T04:45:42;101906.56;;;26.42;38.01
22481;BME280;11407;56.964;-2.212;2022-08-07T04:56:46;101889.03;;;26.38;37.97
22481;BME280;11407;56.964;-2.212;2022-08-07T04:59:19;101893.78;;;26.36;38.31
22481;BME280;11407;56.964;-2.212;2022-08-07T05:01:48;101901.88;;;26.36;38.01
22481;BME280;11407;56.964;-2.212;2022-08-07T05:04:17;101901.69;;;26.37;38.47
22481;BME280;11407;56.964;-2.212;2022-08-07T05:12:18;101905.25;;;26.52;37.73
22481;BME280;11407;56.964;-2.212;2022-08-07T05:14:47;101907.75;;;26.53;37.67
22481;BME280;11407;56.964;-2.212;2022-08-07T05:17:18;101904.44;;;26.23;38.68
22481;BME280;11407;56.964;-2.212;2022-08-07T05:19:47;101911.91;;;26.06;38.83
22481;BME280;11407;56.964;-2.212;2022-08-07T05:22:15;101891.97;;;26.57;37.88
22481;BME280;11407;56.964;-2.212;2022-08-07T05:24:42;101901.09;;;26.70;37.61
22481;BME280;11407;56.964;-2.212;2022-08-07T05:27:12;101913.91;;;26.33;38.66
22481;BME280;11407;56.964;-2.212;2022-08-07T05:29:40;101917.88;;;26.66;37.90
22481;BME280;11407;56.964;-2.212;2022-08-07T05:32:08;101917.06;;;26.86;38.01
22481;BME280;11407;56.964;-2.212;2022-08-07T05:34:35;101920.25;;;26.90;37.47
22481;BME280;11407;56.964;-2.212;2022-08-07T05:37:02;101923.19;;;26.95;37.63
22481;BME280;11407;56.964;-2.212;2022-08-07T05:39:28;101918.03;;;27.00;37.82
22481;BME280;11407;56.964;-2.212;2022-08-07T05:41:54;101919.00;;;26.92;37.77
22481;BME280;11407;56.964;-2.212;2022-08-07T05:44:20;101917.13;;;27.07;37.78
22481;BME280;11407;56.964;-2.212;2022-08-07T05:46:49;101921.03;;;27.05;37.57
22481;BME280;11407;56.964;-2.212;2022-08-07T05:49:16;101916.97;;;27.15;37.37
22481;BME280;11407;56.964;-2.212;2022-08-07T05:51:43;101921.59;;;27.42;36.96
22481;BME280;11407;56.964;-2.212;2022-08-07T05:54:09;101921.38;;;27.44;37.20
22481;BME280;11407;56.964;-2.212;2022-08-07T05:56:36;101915.97;;;27.44;37.00
22481;BME280;11407;56.964;-2.212;2022-08-07T05:59:04;101918.03;;;27.42;37.17
22481;BME280;11407;56.964;-2.212;2022-08-07T06:01:34;101923.25;;;27.43;37.18
22481;BME280;11407;56.964;-2.212;2022-08-07T06:04:03;101912.19;;;27.65;36.79
22481;BME280;11407;56.964;-2.212;2022-08-07T06:06:30;101907.44;;;27.67;36.38
22481;BME280;11407;56.964;-2.212;2022-08-07T06:08:57;101918.34;;;27.53;36.79
22481;BME280;11407;56.964;-2.212;2022-08-07T06:11:23;101915.63;;;27.53;36.83
22481;BME280;11407;56.964;-2.212;2022-08-07T06:13:49;101913.53;;;27.55;36.89
22481;BME280;11407;56.964;-2.212;2022-08-07T06:16:15;101912.13;;;27.59;36.83
22481;BME280;11407;56.964;-2.212;2022-08-07T06:18:41;101920.03;;;27.60;37.00
22481;BME280;11407;56.964;-2.212;2022-08-07T06:21:07;101921.00;;;27.47;37.25
22481;BME280;11407;56.964;-2.212;2022-08-07T06:23:34;101921.44;;;27.50;37.02
22481;BME280;11407;56.964;-2.212;2022-08-07T06:26:01;101913.88;;;27.66;36.59
22481;BME280;11407;56.964;-2.212;2022-08-07T06:28:26;101919.88;;;27.62;36.96
22481;BME280;11407;56.964;-2.212;2022-08-07T06:30:52;101920.34;;;27.65;36.81
22481;BME280;11407;56.964;-2.212;2022-08-07T06:33:18;101913.06;;;27.72;36.83
22481;BME280;11407;56.964;-2.212;2022-08-07T06:35:43;101919.09;;;27.68;36.79
22481;BME280;11407;56.964;-2.212;2022-08-07T06:38:09;101918.25;;;27.67;36.78
22481;BME280;11407;56.964;-2.212;2022-08-07T06:40:55;101920.91;;;27.88;37.22
22481;BME280;11407;56.964;-2.212;2022-08-07T06:43:22;101921.78;;;27.68;37.15
22481;BME280;11407;56.964;-2.212;2022-08-07T06:45:48;101928.94;;;27.75;37.31
22481;BME280;11407;56.964;-2.212;2022-08-07T06:48:14;101924.56;;;27.74;37.27
22481;BME280;11407;56.964;-2.212;2022-08-07T06:50:40;101925.34;;;27.96;37.23
22481;BME280;11407;56.964;-2.212;2022-08-07T06:53:08;101928.00;;;28.23;36.94
22481;BME280;11407;56.964;-2.212;2022-08-07T06:55:35;101922.88;;;28.47;36.49
22481;BME280;11407;56.964;-2.212;2022-08-07T06:58:06;101925.88;;;28.59;36.83
22481;BME280;11407;56.964;-2.212;2022-08-07T07:00:36;101930.03;;;28.61;36.83
22481;BME280;11407;56.964;-2.212;2022-08-07T07:03:03;101919.84;;;28.70;36.55
22481;BME280;11407;56.964;-2.212;2022-08-07T07:05:29;101920.13;;;28.88;37.00
22481;BME280;11407;56.964;-2.212;2022-08-07T07:07:55;101915.34;;;29.03;37.08
22481;BME280;11407;56.964;-2.212;2022-08-07T07:10:31;101917.47;;;29.27;36.53
22481;BME280;11407;56.964;-2.212;2022-08-07T07:13:11;101913.72;;;29.60;36.43
22481;BME280;11407;56.964;-2.212;2022-08-07T07:15:43;101904.69;;;29.85;35.62
22481;BME280;11407;56.964;-2.212;2022-08-07T07:18:17;101913.06;;;29.90;35.97
22481;BME280;11407;56.964;-2.212;2022-08-07T07:20:54;101904.66;;;30.05;35.24
22481;BME280;11407;56.964;-2.212;2022-08-07T07:23:22;101906.94;;;30.14;35.83
22481;BME280;11407;56.964;-2.212;2022-08-07T07:25:50;101912.09;;;30.35;35.75
22481;BME280;11407;56.964;-2.212;2022-08-07T07:28:20;101914.19;;;30.33;35.24
22481;BME280;11407;56.964;-2.212;2022-08-07T07:30:56;101905.69;;;30.17;34.83
22481;BME280;11407;56.964;-2.212;2022-08-07T07:33:25;101912.31;;;30.27;35.17
22481;BME280;11407;56.964;-2.212;2022-08-07T07:35:52;101911.84;;;30.43;35.37
22481;BME280;11407;56.964;-2.212;2022-08-07T07:38:21;101916.00;;;30.52;34.52
22481;BME280;11407;56.964;-2.212;2022-08-07T07:40:48;101917.91;;;30.45;35.55
22481;BME280;11407;56.964;-2.212;2022-08-07T07:43:15;101915.16;;;30.58;35.32
22481;BME280;11407;56.964;-2.212;2022-08-07T07:45:44;101914.34;;;30.88;34.34
22481;BME280;11407;56.964;-2.212;2022-08-07T07:48:14;101911.72;;;30.75;35.31
22481;BME280;11407;56.964;-2.212;2022-08-07T07:50:41;101912.56;;;30.69;34.69
22481;BME280;11407;56.964;-2.212;2022-08-07T07:53:08;101915.44;;;30.81;34.95
22481;BME280;11407;56.964;-2.212;2022-08-07T07:55:34;101904.66;;;30.92;34.84
22481;BME280;11407;56.964;-2.212;2022-08-07T07:58:01;101911.97;;;30.98;34.99
22481;BME280;11407;56.964;-2.212;2022-08-07T08:00:27;101911.63;;;31.19;34.70
22481;BME280;11407;56.964;-2.212;2022-08-07T08:02:57;101901.34;;;31.21;34.91
22481;BME280;11407;56.964;-2.212;2022-08-07T08:05:23;101906.13;;;31.50;34.35
22481;BME280;11407;56.964;-2.212;2022-08-07T08:07:49;101900.63;;;31.56;34.63
22481;BME280;11407;56.964;-2.212;2022-08-07T08:10:15;101907.31;;;31.60;34.72
22481;BME280;11407;56.964;-2.212;2022-08-07T08:12:42;101902.03;;;31.65;34.49
22481;BME280;11407;56.964;-2.212;2022-08-07T08:15:09;101905.88;;;31.58;34.80
22481;BME280;11407;56.964;-2.212;2022-08-07T08:17:35;101901.28;;;31.94;33.94
22481;BME280;11407;56.964;-2.212;2022-08-07T08:20:04;101898.66;;;32.23;34.21
22481;BME280;11407;56.964;-2.212;2022-08-07T08:22:33;101906.13;;;32.17;33.89
22481;BME280;11407;56.964;-2.212;2022-08-07T08:25:19;101910.88;;;32.21;33.56
22481;BME280;11407;56.964;-2.212;2022-08-07T08:28:04;101903.47;;;32.57;33.47
22481;BME280;11407;56.964;-2.212;2022-08-07T08:30:34;101897.03;;;32.52;33.16
22481;BME280;11407;56.964;-2.212;2022-08-07T08:33:02;101905.34;;;32.75;33.12
22481;BME280;11407;56.964;-2.212;2022-08-07T08:35:30;101894.59;;;32.91;32.59
22481;BME280;11407;56.964;-2.212;2022-08-07T08:37:59;101894.13;;;32.94;32.41
22481;BME280;11407;56.964;-2.212;2022-08-07T08:40:39;101889.47;;;32.95;32.05
22481;BME280;11407;56.964;-2.212;2022-08-07T08:43:22;101881.00;;;33.14;32.44
22481;BME280;11407;56.964;-2.212;2022-08-07T08:46:08;101892.19;;;33.24;31.76
22481;BME280;11407;56.964;-2.212;2022-08-07T08:48:50;101880.31;;;33.41;32.25
22481;BME280;11407;56.964;-2.212;2022-08-07T08:54:07;101890.47;;;33.64;31.18
22481;BME280;11407;56.964;-2.212;2022-08-07T08:56:46;101891.78;;;33.61;30.87
22481;BME280;11407;56.964;-2.212;2022-08-07T09:04:24;101894.00;;;33.53;31.87
22481;BME280;11407;56.964;-2.212;2022-08-07T09:07:09;101899.13;;;33.26;31.14
22481;BME280;11407;56.964;-2.212;2022-08-07T09:09:43;101905.50;;;33.20;32.22
22481;BME280;11407;56.964;-2.212;2022-08-07T09:18:13;101895.44;;;33.78;31.51
22481;BME280;11407;56.964;-2.212;2022-08-07T09:20:48;101906.31;;;33.73;31.27
22481;BME280;11407;56.964;-2.212;2022-08-07T09:26:25;101894.25;;;33.86;30.39
22481;BME280;11407;56.964;-2.212;2022-08-07T09:29:02;101887.25;;;33.90;31.20
22481;BME280;11407;56.964;-2.212;2022-08-07T09:34:53;101884.72;;;34.11;30.09
22481;BME280;11407;56.964;-2.212;2022-08-07T09:40:00;101879.09;;;34.29;30.31
22481;BME280;11407;56.964;-2.212;2022-08-07T09:50:49;101875.81;;;34.43;29.87
22481;BME280;11407;56.964;-2.212;2022-08-07T09:53:17;101883.28;;;34.59;29.96
22481;BME280;11407;56.964;-2.212;2022-08-07T10:06:52;101870.44;;;35.20;30.08
22481;BME280;11407;56.964;-2.212;2022-08-07T10:12:47;101872.13;;;35.43;29.59
22481;BME280;11407;56.964;-2.212;2022-08-07T10:15:37;101880.81;;;34.91;29.12
22481;BME280;11407;56.964;-2.212;2022-08-07T10:21:09;101896.19;;;34.92;28.53
22481;BME280;11407;56.964;-2.212;2022-08-07T10:29:10;101903.03;;;33.99;29.29
22481;BME280;11407;56.964;-2.212;2022-08-07T10:50:41;101896.38;;;33.26;30.22
22481;BME280;11407;56.964;-2.212;2022-08-07T10:53:25;101901.09;;;32.79;30.42
22481;BME280;11407;56.964;-2.212;2022-08-07T10:56:09;101898.03;;;32.87;30.07
22481;BME280;11407;56.964;-2.212;2022-08-07T11:05:13;101890.06;;;32.85;29.22
22481;BME280;11407;56.964;-2.212;2022-08-07T11:07:15;101890.91;;;32.86;29.72
22481;BME280;11407;56.964;-2.212;2022-08-07T11:09:51;101899.88;;;32.75;29.70
22481;BME280;11407;56.964;-2.212;2022-08-07T11:12:24;101898.66;;;32.71;29.69
22481;BME280;11407;56.964;-2.212;2022-08-07T11:15:09;101895.94;;;32.71;29.32
22481;BME280;11407;56.964;-2.212;2022-08-07T11:17:48;101893.25;;;32.53;29.81
22481;BME280;11407;56.964;-2.212;2022-08-07T11:20:29;101903.88;;;32.43;28.89
22481;BME280;11407;56.964;-2.212;2022-08-07T11:23:53;101908.28;;;32.44;28.88
22481;BME280;11407;56.964;-2.212;2022-08-07T11:26:00;101898.41;;;32.43;29.58
22481;BME280;11407;56.964;-2.212;2022-08-07T11:28:34;101900.38;;;32.54;29.84
22481;BME280;11407;56.964;-2.212;2022-08-07T11:31:12;101903.13;;;32.36;29.57
22481;BME280;11407;56.964;-2.212;2022-08-07T11:40:09;101905.00;;;32.00;29.47
22481;BME280;11407;56.964;-2.212;2022-08-07T11:42:55;101902.66;;;31.85;29.40
22481;BME280;11407;56.964;-2.212;2022-08-07T11:57:04;101902.00;;;32.73;29.69
22481;BME280;11407;56.964;-2.212;2022-08-07T12:10:33;101922.88;;;31.78;30.43
22481;BME280;11407;56.964;-2.212;2022-08-07T12:16:03;101914.13;;;32.29;28.68
22481;BME280;11407;56.964;-2.212;2022-08-07T12:21:25;101915.31;;;32.69;29.37
22481;BME280;11407;56.964;-2.212;2022-08-07T12:26:42;101910.78;;;32.93;28.07
22481;BME280;11407;56.964;-2.212;2022-08-07T12:29:16;101909.56;;;33.00;28.87
22481;BME280;11407;56.964;-2.212;2022-08-07T12:31:48;101915.63;;;33.20;28.16
22481;BME280;11407;56.964;-2.212;2022-08-07T12:34:17;101913.81;;;33.14;28.21
22481;BME280;11407;56.964;-2.212;2022-08-07T12:36:45;101919.81;;;33.05;28.22
22481;BME280;11407;56.964;-2.212;2022-08-07T12:39:12;101931.19;;;32.90;28.75
22481;BME280;11407;56.964;-2.212;2022-08-07T12:41:39;101932.50;;;32.88;28.66
22481;BME280;11407;56.964;-2.212;2022-08-07T12:44:07;101927.41;;;32.44;29.00
22481;BME280;11407;56.964;-2.212;2022-08-07T12:49:36;101927.03;;;32.88;27.74
22481;BME280;11407;56.964;-2.212;2022-08-07T12:52:12;101931.16;;;32.79;27.94
22481;BME280;11407;56.964;-2.212;2022-08-07T12:57:17;101944.66;;;32.74;28.54
22481;BME280;11407;56.964;-2.212;2022-08-07T12:59:46;101932.66;;;32.75;28.42
22481;BME280;11407;56.964;-2.212;2022-08-07T13:22:14;101938.13;;;33.04;27.41
22481;BME280;11407;56.964;-2.212;2022-08-07T13:24:55;101943.19;;;32.89;27.30
22481;BME280;11407;56.964;-2.212;2022-08-07T13:27:40;101948.97;;;32.81;27.24
22481;BME280;11407;56.964;-2.212;2022-08-07T13:30:10;101937.31;;;32.74;28.17
22481;BME280;11407;56.964;-2.212;2022-08-07T13:36:07;101932.66;;;32.75;26.99
22481;BME280;11407;56.964;-2.212;2022-08-07T13:41:41;101936.13;;;32.82;27.48
22481;BME280;11407;56.964;-2.212;2022-08-07T13:44:09;101937.59;;;32.84;27.53
22481;BME280;11407;56.964;-2.212;2022-08-07T13:46:38;101941.75;;;32.87;27.02
22481;BME280;11407;56.964;-2.212;2022-08-07T13:49:06;101951.16;;;32.91;27.44
22481;BME280;11407;56.964;-2.212;2022-08-07T13:51:33;101949.44;;;32.78;27.77
22481;BME280;11407;56.964;-2.212;2022-08-07T13:54:06;101945.78;;;32.84;27.77
22481;BME280;11407;56.964;-2.212;2022-08-07T13:56:35;101940.44;;;32.89;27.52
22481;BME280;11407;56.964;-2.212;2022-08-07T13:59:03;101932.50;;;32.99;27.67
22481;BME280;11407;56.964;-2.212;2022-08-07T14:01:33;101938.38;;;33.03;27.25
22481;BME280;11407;56.964;-2.212;2022-08-07T14:04:07;101937.31;;;33.04;27.13
22481;BME280;11407;56.964;-2.212;2022-08-07T14:06:34;101934.09;;;33.07;27.17
22481;BME280;11407;56.964;-2.212;2022-08-07T14:09:02;101932.66;;;33.04;27.85
22481;BME280;11407;56.964;-2.212;2022-08-07T14:11:30;101925.59;;;33.15;27.44
22481;BME280;11407;56.964;-2.212;2022-08-07T14:14:03;101923.50;;;32.99;27.20
22481;BME280;11407;56.964;-2.212;2022-08-07T14:16:37;101936.34;;;33.10;27.52
22481;BME280;11407;56.964;-2.212;2022-08-07T14:19:13;101937.66;;;33.07;27.42
22481;BME280;11407;56.964;-2.212;2022-08-07T14:21:41;101924.03;;;33.18;27.41
22481;BME280;11407;56.964;-2.212;2022-08-07T14:24:21;101938.81;;;33.29;26.83
22481;BME280;11407;56.964;-2.212;2022-08-07T14:26:56;101929.66;;;33.23;27.22
22481;BME280;11407;56.964;-2.212;2022-08-07T14:29:27;101928.81;;;33.23;27.46
22481;BME280;11407;56.964;-2.212;2022-08-07T14:31:58;101930.16;;;33.03;27.21
22481;BME280;11407;56.964;-2.212;2022-08-07T14:34:26;101932.03;;;32.91;27.57
22481;BME280;11407;56.964;-2.212;2022-08-07T14:36:53;101912.38;;;33.12;27.78
22481;BME280;11407;56.964;-2.212;2022-08-07T14:39:20;101918.38;;;33.02;26.89
22481;BME280;11407;56.964;-2.212;2022-08-07T14:41:47;101925.91;;;32.77;27.51
22481;BME280;11407;56.964;-2.212;2022-08-07T14:44:15;101930.31;;;32.78;28.03
22481;BME280;11407;56.964;-2.212;2022-08-07T14:46:43;101926.81;;;33.30;27.08
22481;BME280;11407;56.964;-2.212;2022-08-07T14:49:10;101925.28;;;33.45;27.19
22481;BME280;11407;56.964;-2.212;2022-08-07T14:51:37;101924.84;;;33.60;27.06
22481;BME280;11407;56.964;-2.212;2022-08-07T14:54:08;101922.00;;;33.14;27.68
22481;BME280;11407;56.964;-2.212;2022-08-07T14:56:39;101934.38;;;33.17;27.16
22481;BME280;11407;56.964;-2.212;2022-08-07T14:59:06;101936.72;;;33.65;26.91
22481;BME280;11407;56.964;-2.212;2022-08-07T15:01:38;101930.31;;;33.60;27.02
22481;BME280;11407;56.964;-2.212;2022-08-07T15:04:07;101931.50;;;33.75;27.30
22481;BME280;11407;56.964;-2.212;2022-08-07T15:06:36;101939.81;;;34.03;26.42
22481;BME280;11407;56.964;-2.212;2022-08-07T15:09:13;101941.75;;;34.03;25.79
22481;BME280;11407;56.964;-2.212;2022-08-07T15:11:46;101933.19;;;34.11;26.36
22481;BME280;11407;56.964;-2.212;2022-08-07T15:14:24;101935.31;;;34.20;25.92
22481;BME280;11407;56.964;-2.212;2022-08-07T15:16:55;101930.66;;;34.20;25.80
22481;BME280;11407;56.964;-2.212;2022-08-07T15:19:28;101925.38;;;34.30;26.02
22481;BME280;11407;56.964;-2.212;2022-08-07T15:21:58;101936.22;;;34.37;26.85
22481;BME280;11407;56.964;-2.212;2022-08-07T15:24:35;101935.88;;;34.33;26.99
22481;BME280;11407;56.964;-2.212;2022-08-07T15:27:09;101931.47;;;34.21;27.07
22481;BME280;11407;56.964;-2.212;2022-08-07T15:29:47;101922.78;;;34.01;27.56
22481;BME280;11407;56.964;-2.212;2022-08-07T15:32:14;101935.31;;;33.74;27.48
22481;BME280;11407;56.964;-2.212;2022-08-07T15:34:49;101931.84;;;33.56;28.53
22481;BME280;11407;56.964;-2.212;2022-08-07T15:37:18;101929.38;;;33.89;27.98